Time;durP1;ratioP1;P1;durP2;ratioP2;P2;SDS_P1;SDS_P2;PMS_P1;PMS_P2;Temp;Humidity;BMP_temperature;BMP_pressure;BME280_temperature;BME280_humidity;BME280_pressure;Samples;Min_cycle;Max_cycle;Signal;HPM_P1;HPM_P2
2022/01/10 00:01:08;;;;;;;14.98;6.68;;;0.10;99.90;;;;;;4979977;28;20046;-80
2022/01/10 00:03:34;;;;;;;11.75;5.70;;;0.10;99.90;;;;;;5011836;28;20054;-81
2022/01/10 00:06:00;;;;;;;21.08;5.68;;;0.10;99.90;;;;;;4993802;28;20049;-81
2022/01/10 00:08:26;;;;;;;12.82;5.32;;;0.20;99.90;;;;;;4996367;28;20034;-81
2022/01/10 00:10:58;;;;;;;18.63;5.60;;;0.20;99.90;;;;;;5011722;28;20080;-81
2022/01/10 00:13:24;;;;;;;11.15;5.90;;;0.20;99.90;;;;;;4977776;28;20037;-81
2022/01/10 00:15:49;;;;;;;15.60;6.20;;;0.20;99.90;;;;;;4994162;28;20450;-81
2022/01/10 00:18:19;;;;;;;18.83;6.97;;;0.30;99.90;;;;;;4993825;28;20042;-81
2022/01/10 00:20:48;;;;;;;21.23;6.63;;;0.30;99.90;;;;;;4979699;28;20042;-81
2022/01/10 00:23:14;;;;;;;12.02;5.53;;;0.30;99.90;;;;;;4995234;28;20145;-80
2022/01/10 00:25:40;;;;;;;13.73;5.32;;;0.20;99.90;;;;;;4991030;28;20051;-81
2022/01/10 00:28:05;;;;;;;15.63;5.25;;;0.20;99.90;;;;;;4980017;28;20048;-81
2022/01/10 00:30:31;;;;;;;13.32;6.32;;;0.20;99.90;;;;;;4993641;28;20031;-81
2022/01/10 00:32:57;;;;;;;16.13;6.82;;;0.20;99.90;;;;;;4997991;28;20041;-81
2022/01/10 00:35:26;;;;;;;18.83;7.00;;;0.20;99.90;;;;;;4987531;28;20041;-81
2022/01/10 00:37:51;;;;;;;18.38;6.57;;;0.20;99.90;;;;;;4990696;28;20172;-81
2022/01/10 00:40:19;;;;;;;21.90;6.20;;;0.20;99.90;;;;;;4999560;28;20060;-81
2022/01/10 00:42:56;;;;;;;19.42;6.82;;;0.30;99.90;;;;;;4999489;28;20048;-81
2022/01/10 00:45:26;;;;;;;15.13;6.95;;;0.30;99.90;;;;;;5015764;28;20033;-81
2022/01/10 00:48:03;;;;;;;21.65;6.57;;;0.30;99.90;;;;;;5000287;28;20174;-81
2022/01/10 00:50:29;;;;;;;19.25;6.20;;;0.30;99.90;;;;;;4999752;28;20085;-81
2022/01/10 00:52:55;;;;;;;16.42;6.65;;;0.40;99.90;;;;;;5018151;28;20481;-81
2022/01/10 00:55:21;;;;;;;20.48;6.30;;;0.30;99.90;;;;;;5000154;28;20424;-81
2022/01/10 00:57:47;;;;;;;25.35;6.22;;;0.40;99.90;;;;;;4981900;28;20041;-81
2022/01/10 01:00:17;;;;;;;18.52;6.30;;;0.30;99.90;;;;;;4987278;28;20053;-81
2022/01/10 01:02:42;;;;;;;9.82;4.97;;;0.30;99.90;;;;;;4999207;28;20440;-80
2022/01/10 01:05:14;;;;;;;14.57;5.85;;;0.40;99.90;;;;;;4999587;28;20026;-81
2022/01/10 01:07:40;;;;;;;18.52;6.47;;;0.40;99.90;;;;;;5000053;28;20029;-81
2022/01/10 01:15:26;;;;;;;17.33;5.80;;;0.40;99.90;;;;;;5012279;28;20120;-81
2022/01/10 01:20:31;;;;;;;13.55;5.38;;;0.40;99.90;;;;;;5015131;28;20044;-81
2022/01/10 01:25:42;;;;;;;15.73;5.38;;;0.40;99.90;;;;;;5015509;28;20053;-81
2022/01/10 01:28:11;;;;;;;11.40;5.30;;;0.40;99.90;;;;;;4982905;28;20408;-81
2022/01/10 01:30:37;;;;;;;12.82;4.95;;;0.40;99.90;;;;;;4989443;28;20042;-81
2022/01/10 01:33:02;;;;;;;13.20;5.03;;;0.40;99.90;;;;;;4983015;28;20448;-81
2022/01/10 01:35:28;;;;;;;15.25;5.07;;;0.40;99.90;;;;;;4967489;28;20046;-81
2022/01/10 01:37:55;;;;;;;13.88;4.65;;;0.40;99.90;;;;;;5015624;28;20037;-81
2022/01/10 01:40:22;;;;;;;10.52;5.05;;;0.40;99.90;;;;;;4998990;28;20065;-81
2022/01/10 01:42:51;;;;;;;15.50;4.45;;;0.40;99.90;;;;;;5000244;28;20034;-81
2022/01/10 01:45:48;;;;;;;11.77;5.55;;;0.40;99.90;;;;;;4998910;28;20084;-81
2022/01/10 01:48:15;;;;;;;14.48;5.93;;;0.40;99.90;;;;;;5014978;28;20038;-81
2022/01/10 01:50:45;;;;;;;14.52;4.95;;;0.40;99.90;;;;;;4998864;28;20041;-81
2022/01/10 01:53:12;;;;;;;14.52;4.60;;;0.40;99.90;;;;;;4999248;28;20144;-81
2022/01/10 01:55:38;;;;;;;14.80;5.00;;;0.40;99.90;;;;;;4998198;28;20045;-81
2022/01/10 01:58:04;;;;;;;15.32;5.10;;;0.40;99.90;;;;;;4985749;28;20077;-81
2022/01/10 02:00:33;;;;;;;8.93;4.03;;;0.40;99.90;;;;;;5012627;28;20064;-81
2022/01/10 02:03:02;;;;;;;9.70;4.90;;;0.40;99.90;;;;;;5015942;28;20420;-81
2022/01/10 02:05:38;;;;;;;10.20;4.82;;;0.40;99.90;;;;;;5014629;28;20444;-81
2022/01/10 02:08:12;;;;;;;15.15;5.28;;;0.40;99.90;;;;;;5015011;28;20030;-81
2022/01/10 02:10:39;;;;;;;8.38;4.40;;;0.40;99.90;;;;;;5007806;28;20030;-81
2022/01/10 02:13:04;;;;;;;13.43;5.18;;;0.40;99.90;;;;;;4982948;28;20030;-81
2022/01/10 02:18:23;;;;;;;12.70;5.47;;;0.40;99.90;;;;;;4997370;28;20041;-81
2022/01/10 02:21:00;;;;;;;16.05;4.32;;;0.40;99.90;;;;;;4998623;28;20037;-81
2022/01/10 02:23:31;;;;;;;13.55;4.28;;;0.40;99.90;;;;;;5015220;28;20161;-81
2022/01/10 02:25:57;;;;;;;13.20;4.85;;;0.40;99.90;;;;;;4993778;28;20511;-81
2022/01/10 02:28:23;;;;;;;15.45;3.85;;;0.40;99.90;;;;;;4979610;28;20441;-81
2022/01/10 02:30:56;;;;;;;11.52;3.92;;;0.40;99.90;;;;;;5011859;28;20116;-81
2022/01/10 02:33:28;;;;;;;11.27;4.80;;;0.40;99.90;;;;;;5000408;28;20038;-81
2022/01/10 02:36:04;;;;;;;10.73;4.30;;;0.40;99.90;;;;;;5014608;28;20053;-81
2022/01/10 02:38:30;;;;;;;12.73;4.72;;;0.30;99.90;;;;;;4999768;28;20065;-81
2022/01/10 02:41:00;;;;;;;10.85;4.75;;;0.30;99.90;;;;;;5013652;28;20034;-81
2022/01/10 02:43:29;;;;;;;11.32;4.45;;;0.30;99.90;;;;;;4990571;28;20044;-81
2022/01/10 02:46:00;;;;;;;13.05;5.00;;;0.30;99.90;;;;;;4978944;28;20117;-80
2022/01/10 02:48:26;;;;;;;12.32;5.50;;;0.30;99.90;;;;;;4985252;28;20482;-81
2022/01/10 02:50:52;;;;;;;12.27;4.68;;;0.30;99.90;;;;;;4995184;28;20038;-80
2022/01/10 02:53:21;;;;;;;11.50;4.32;;;0.30;99.90;;;;;;4993653;28;20445;-81
2022/01/10 02:55:53;;;;;;;12.80;4.55;;;0.40;99.90;;;;;;4980733;28;20053;-81
2022/01/10 02:58:19;;;;;;;12.30;4.47;;;0.40;99.90;;;;;;4980989;28;20460;-81
2022/01/10 03:00:45;;;;;;;10.27;3.78;;;0.40;99.90;;;;;;4990825;28;20033;-80
2022/01/10 03:03:11;;;;;;;14.23;4.80;;;0.40;99.90;;;;;;4994939;28;20030;-81
2022/01/10 03:05:37;;;;;;;14.50;4.03;;;0.40;99.90;;;;;;4995586;28;20124;-80
2022/01/10 03:08:16;;;;;;;9.85;3.85;;;0.40;99.90;;;;;;4978441;28;20036;-81
2022/01/10 03:10:44;;;;;;;8.02;3.97;;;0.40;99.90;;;;;;4976334;28;20548;-81
2022/01/10 03:13:10;;;;;;;16.77;4.55;;;0.40;99.90;;;;;;5011045;28;20073;-80
2022/01/10 03:15:35;;;;;;;11.00;4.10;;;0.40;99.90;;;;;;4994139;28;20551;-80
2022/01/10 03:18:09;;;;;;;14.82;4.47;;;0.40;99.90;;;;;;4984314;28;20029;-80
2022/01/10 03:20:35;;;;;;;14.07;4.88;;;0.30;99.90;;;;;;4995435;28;20038;-80
2022/01/10 03:23:01;;;;;;;12.38;4.97;;;0.30;99.90;;;;;;4976031;28;20109;-80
2022/01/10 03:25:30;;;;;;;18.95;5.45;;;0.30;99.90;;;;;;4981706;28;20022;-80
2022/01/10 03:27:56;;;;;;;12.55;4.53;;;0.30;99.90;;;;;;4979332;28;20037;-80
2022/01/10 03:30:26;;;;;;;10.70;5.05;;;0.20;99.90;;;;;;4994210;28;20030;-80
2022/01/10 03:32:58;;;;;;;8.85;4.07;;;0.20;99.90;;;;;;4991591;28;20036;-80
2022/01/10 03:35:24;;;;;;;8.35;4.22;;;0.20;99.90;;;;;;4995324;28;20127;-80
2022/01/10 03:37:49;;;;;;;9.85;4.30;;;0.20;99.90;;;;;;5007435;28;20089;-80
2022/01/10 03:40:18;;;;;;;6.75;4.05;;;0.20;99.90;;;;;;4977427;28;20088;-80
2022/01/10 03:42:44;;;;;;;15.65;4.95;;;0.10;99.90;;;;;;4988188;28;20125;-80
2022/01/10 03:45:13;;;;;;;13.10;4.63;;;0.10;99.90;;;;;;4990834;28;20073;-80
2022/01/10 03:47:45;;;;;;;12.73;4.47;;;0.10;99.90;;;;;;4982721;28;20467;-80
2022/01/10 03:50:11;;;;;;;13.43;4.63;;;0.10;99.90;;;;;;4994626;28;20091;-80
2022/01/10 03:52:37;;;;;;;15.38;5.00;;;0.10;99.90;;;;;;5007325;28;20034;-80
2022/01/10 03:55:03;;;;;;;14.70;4.60;;;0.10;99.90;;;;;;4975557;28;20402;-80
2022/01/10 03:57:29;;;;;;;18.58;5.18;;;0.00;99.90;;;;;;4990260;28;20034;-80
2022/01/10 03:59:58;;;;;;;12.35;5.05;;;0.00;99.90;;;;;;4988378;28;20053;-80
2022/01/10 04:02:30;;;;;;;15.00;5.22;;;0.00;99.90;;;;;;4997557;28;20273;-80
2022/01/10 04:04:58;;;;;;;14.23;5.22;;;0.00;99.90;;;;;;4996438;28;20040;-80
2022/01/10 04:07:29;;;;;;;17.58;5.00;;;-0.10;99.90;;;;;;4997172;28;20147;-81
2022/01/10 04:09:56;;;;;;;23.80;5.47;;;-0.10;99.90;;;;;;4998155;28;20034;-80
2022/01/10 04:12:25;;;;;;;13.52;5.25;;;-0.10;99.90;;;;;;5001043;28;20177;-80
2022/01/10 04:14:54;;;;;;;28.63;6.78;;;-0.20;99.90;;;;;;4978364;28;20061;-80
2022/01/10 04:17:20;;;;;;;30.08;5.60;;;-0.20;99.90;;;;;;5006427;28;20037;-80
2022/01/10 04:19:45;;;;;;;24.38;6.70;;;-0.20;99.90;;;;;;4996195;28;20044;-81
2022/01/10 04:22:14;;;;;;;17.25;6.80;;;-0.20;99.90;;;;;;4986984;28;20041;-81
2022/01/10 04:24:43;;;;;;;37.17;6.15;;;-0.20;99.90;;;;;;4988187;28;20210;-80
2022/01/10 04:27:15;;;;;;;55.65;7.13;;;-0.20;99.90;;;;;;4997523;28;20073;-81
2022/01/10 04:29:47;;;;;;;22.20;6.18;;;-0.20;99.90;;;;;;4998605;28;20033;-80
2022/01/10 04:32:16;;;;;;;16.00;5.95;;;-0.20;99.90;;;;;;4996211;28;20018;-81
2022/01/10 04:34:43;;;;;;;27.27;5.82;;;-0.20;99.90;;;;;;4997702;28;20041;-80
2022/01/10 04:37:09;;;;;;;14.93;5.30;;;-0.20;99.90;;;;;;4993290;28;20064;-81
2022/01/10 04:39:41;;;;;;;38.22;5.55;;;-0.20;99.90;;;;;;5021419;22;20623;-87
2022/01/10 04:42:08;;;;;;;37.13;6.13;;;-0.20;99.90;;;;;;5002034;28;20502;-87
2022/01/10 04:44:33;;;;;;;27.90;5.45;;;-0.30;99.90;;;;;;5027374;28;20029;-87
2022/01/10 04:47:05;;;;;;;44.42;5.18;;;-0.30;99.90;;;;;;5011547;28;20026;-87
2022/01/10 04:50:03;;;;;;;100.18;5.38;;;-0.20;99.90;;;;;;5008752;28;20030;-87
2022/01/10 04:52:24;;;;;;;45.53;5.90;;;-0.20;99.90;;;;;;5008214;28;20057;-87
2022/01/10 04:54:53;;;;;;;83.78;7.40;;;-0.30;99.90;;;;;;5010452;28;20028;-87
2022/01/10 04:57:23;;;;;;;55.80;6.55;;;-0.30;99.90;;;;;;4987904;28;20342;-87
2022/01/10 04:59:55;;;;;;;29.27;5.07;;;-0.30;99.90;;;;;;4990391;28;20069;-87
2022/01/10 05:02:21;;;;;;;88.65;7.15;;;-0.30;99.90;;;;;;5000559;28;20030;-87
2022/01/10 05:04:46;;;;;;;51.58;5.55;;;-0.30;99.90;;;;;;4978485;28;20022;-87
2022/01/10 05:07:13;;;;;;;30.00;6.32;;;-0.20;99.90;;;;;;5008976;28;20021;-87
2022/01/10 05:09:39;;;;;;;30.58;6.00;;;-0.30;99.90;;;;;;4975437;28;20511;-87
2022/01/10 05:12:06;;;;;;;52.80;6.35;;;-0.30;99.90;;;;;;4992949;28;20033;-87
2022/01/10 05:14:35;;;;;;;68.60;6.45;;;-0.30;99.90;;;;;;4992097;28;20491;-87
2022/01/10 05:17:01;;;;;;;41.78;5.60;;;-0.30;99.90;;;;;;5009446;28;20053;-87
2022/01/10 05:19:27;;;;;;;40.45;6.70;;;-0.30;99.90;;;;;;5010670;28;20026;-87
2022/01/10 05:21:53;;;;;;;132.07;6.80;;;-0.30;99.90;;;;;;4992918;28;20034;-87
2022/01/10 05:24:22;;;;;;;103.53;5.70;;;-0.40;99.90;;;;;;4993813;28;20069;-86
2022/01/10 05:26:49;;;;;;;51.33;5.45;;;-0.40;99.90;;;;;;5009007;28;20401;-87
2022/01/10 05:29:15;;;;;;;85.35;5.18;;;-0.50;99.90;;;;;;4991136;28;20041;-87
2022/01/10 05:31:44;;;;;;;54.45;4.65;;;-0.50;99.90;;;;;;4995070;28;20113;-86
2022/01/10 05:34:11;;;;;;;37.53;4.68;;;-0.50;99.90;;;;;;5010200;28;20033;-86
2022/01/10 05:36:37;;;;;;;69.65;5.13;;;-0.60;99.90;;;;;;5011495;28;20449;-87
2022/01/10 05:39:08;;;;;;;33.65;5.35;;;-0.60;99.90;;;;;;4994099;28;20037;-87
2022/01/10 05:41:35;;;;;;;61.25;4.90;;;-0.60;99.90;;;;;;4991882;28;20096;-87
2022/01/10 05:44:00;;;;;;;26.90;5.03;;;-0.60;99.90;;;;;;4958594;28;20030;-87
2022/01/10 05:46:26;;;;;;;70.32;5.95;;;-0.60;99.90;;;;;;4959116;28;20054;-87
2022/01/10 05:48:54;;;;;;;31.52;5.28;;;-0.60;99.90;;;;;;4994145;28;20076;-87
2022/01/10 05:51:23;;;;;;;52.42;5.47;;;-0.60;99.90;;;;;;5009723;28;20165;-86
2022/01/10 05:53:49;;;;;;;36.40;5.07;;;-0.60;99.90;;;;;;4977909;28;20510;-86
2022/01/10 05:56:15;;;;;;;41.15;5.38;;;-0.60;99.90;;;;;;4979793;28;20034;-87
2022/01/10 05:58:41;;;;;;;17.30;4.50;;;-0.60;99.90;;;;;;4975044;28;20133;-87
2022/01/10 06:01:07;;;;;;;14.52;5.07;;;-0.60;99.90;;;;;;4990961;28;20121;-86
2022/01/10 06:03:32;;;;;;;104.63;6.00;;;-0.60;99.90;;;;;;4990364;28;20033;-87
2022/01/10 06:05:58;;;;;;;38.95;5.18;;;-0.60;99.90;;;;;;5005707;28;20022;-87
2022/01/10 06:08:28;;;;;;;48.90;5.63;;;-0.50;99.90;;;;;;4985658;28;20378;-86
2022/01/10 06:10:53;;;;;;;13.38;5.35;;;-0.50;99.90;;;;;;4990034;28;20435;-86
2022/01/10 06:13:20;;;;;;;65.72;6.97;;;-0.50;99.90;;;;;;4998940;28;20037;-87
2022/01/10 06:15:48;;;;;;;39.35;5.78;;;-0.50;99.90;;;;;;4989803;28;20405;-86
2022/01/10 06:18:18;;;;;;;97.20;6.70;;;-0.50;99.90;;;;;;4983178;28;20521;-87
2022/01/10 06:20:50;;;;;;;16.90;5.50;;;-0.50;99.90;;;;;;5001651;28;20537;-87
2022/01/10 06:23:16;;;;;;;32.58;4.75;;;-0.50;99.90;;;;;;4987993;28;20022;-87
2022/01/10 06:25:41;;;;;;;13.15;5.22;;;-0.50;99.90;;;;;;4976582;28;20030;-87
2022/01/10 06:28:08;;;;;;;21.05;5.78;;;-0.50;99.90;;;;;;5002323;28;20026;-87
2022/01/10 06:30:34;;;;;;;16.95;5.18;;;-0.60;99.90;;;;;;4990211;28;20034;-87
2022/01/10 06:33:07;;;;;;;19.77;4.57;;;-0.50;99.90;;;;;;4994787;28;20038;-87
2022/01/10 06:35:33;;;;;;;16.00;5.30;;;-0.50;99.90;;;;;;4985478;28;20375;-87
2022/01/10 06:38:01;;;;;;;13.65;5.25;;;-0.50;99.90;;;;;;4982469;28;20058;-87
2022/01/10 06:40:27;;;;;;;28.42;5.18;;;-0.60;99.90;;;;;;4983196;28;20507;-87
2022/01/10 06:42:52;;;;;;;34.35;5.97;;;-0.60;99.90;;;;;;4985039;28;20045;-87
2022/01/10 06:45:18;;;;;;;43.30;5.93;;;-0.60;99.90;;;;;;4991788;28;20061;-87
2022/01/10 06:47:47;;;;;;;20.38;4.82;;;-0.60;99.90;;;;;;5010988;28;20574;-87
2022/01/10 06:50:14;;;;;;;37.97;4.70;;;-0.70;99.90;;;;;;4988341;28;20479;-87
2022/01/10 06:52:54;;;;;;;65.78;5.22;;;-0.70;99.90;;;;;;4989402;28;20514;-87
2022/01/10 06:55:19;;;;;;;92.43;5.38;;;-0.70;99.90;;;;;;4972884;28;20503;-87
2022/01/10 06:57:45;;;;;;;36.05;5.53;;;-0.70;99.90;;;;;;4990267;28;20120;-88
2022/01/10 07:00:11;;;;;;;33.33;5.38;;;-0.70;99.90;;;;;;4974135;28;20050;-87
2022/01/10 07:02:37;;;;;;;20.65;5.32;;;-0.70;99.90;;;;;;4973190;28;20022;-87
2022/01/10 07:05:06;;;;;;;22.45;5.40;;;-0.70;99.90;;;;;;4968845;28;20108;-87
2022/01/10 07:07:38;;;;;;;27.70;5.35;;;-0.70;99.90;;;;;;4992378;28;20494;-88
2022/01/10 07:10:05;;;;;;;24.85;5.57;;;-0.70;99.90;;;;;;4971272;28;20033;-87
2022/01/10 07:12:30;;;;;;;18.25;5.40;;;-0.70;99.90;;;;;;4992464;28;20490;-87
2022/01/10 07:15:04;;;;;;;22.45;5.65;;;-0.60;99.90;;;;;;4992165;28;20064;-87
2022/01/10 07:17:38;;;;;;;44.03;6.00;;;-0.60;99.90;;;;;;4991789;28;20117;-87
2022/01/10 07:20:06;;;;;;;61.25;4.97;;;-0.60;99.90;;;;;;5008716;28;20064;-87
2022/01/10 07:22:31;;;;;;;22.73;5.50;;;-0.60;99.90;;;;;;4981923;28;20026;-87
2022/01/10 07:24:57;;;;;;;24.80;4.53;;;-0.70;99.90;;;;;;4990494;28;20372;-87
2022/01/10 07:27:23;;;;;;;56.00;5.82;;;-0.70;99.90;;;;;;4987154;28;20041;-87
2022/01/10 07:29:50;;;;;;;12.43;4.93;;;-0.70;99.90;;;;;;4991027;28;20038;-87
2022/01/10 07:32:17;;;;;;;23.02;5.85;;;-0.70;99.90;;;;;;4974038;28;20030;-87
2022/01/10 07:34:43;;;;;;;20.70;5.85;;;-0.70;99.90;;;;;;5006035;28;20431;-87
2022/01/10 07:37:08;;;;;;;26.05;6.78;;;-0.70;99.90;;;;;;5007822;28;20113;-87
2022/01/10 07:39:35;;;;;;;24.45;5.93;;;-0.60;99.90;;;;;;4984869;28;20117;-87
2022/01/10 07:42:06;;;;;;;23.98;5.45;;;-0.60;99.90;;;;;;5013849;28;20042;-88
2022/01/10 07:44:32;;;;;;;21.23;5.78;;;-0.60;99.90;;;;;;4994112;28;20031;-87
2022/01/10 07:47:04;;;;;;;28.30;6.68;;;-0.60;99.90;;;;;;4976351;28;20529;-87
2022/01/10 07:49:34;;;;;;;15.98;6.07;;;-0.60;99.90;;;;;;4992965;28;20038;-87
2022/01/10 07:52:00;;;;;;;20.27;5.93;;;-0.60;99.90;;;;;;4995029;28;21367;-87
2022/01/10 07:54:30;;;;;;;20.60;5.57;;;-0.60;99.90;;;;;;4996034;28;20057;-87
2022/01/10 07:56:58;;;;;;;100.63;6.07;;;-0.60;99.90;;;;;;5013486;28;20390;-87
2022/01/10 07:59:31;;;;;;;19.17;5.03;;;-0.60;99.90;;;;;;5012340;28;20061;-87
2022/01/10 08:01:57;;;;;;;32.05;4.63;;;-0.60;99.90;;;;;;4980870;28;20034;-87
2022/01/10 08:04:25;;;;;;;79.43;5.50;;;-0.60;99.90;;;;;;4976641;28;20042;-87
2022/01/10 08:06:51;;;;;;;24.08;4.75;;;-0.60;99.90;;;;;;4976209;28;20038;-87
2022/01/10 08:09:16;;;;;;;13.18;4.47;;;-0.60;99.90;;;;;;4986140;28;20045;-88
2022/01/10 08:11:46;;;;;;;68.93;5.07;;;-0.50;99.90;;;;;;5001356;28;20038;-87
2022/01/10 08:14:12;;;;;;;46.55;4.43;;;-0.50;99.90;;;;;;4976520;28;20030;-87
2022/01/10 08:16:41;;;;;;;139.48;5.78;;;-0.50;99.90;;;;;;4998504;28;20133;-87
2022/01/10 08:19:14;;;;;;;66.38;4.88;;;-0.50;99.90;;;;;;4960656;28;20046;-87
2022/01/10 08:21:39;;;;;;;47.92;4.05;;;-0.50;99.90;;;;;;4977292;28;20030;-87
2022/01/10 08:24:05;;;;;;;39.63;4.43;;;-0.50;99.90;;;;;;4975876;28;20045;-87
2022/01/10 08:26:37;;;;;;;29.02;4.47;;;-0.50;99.90;;;;;;4991694;28;20110;-87
2022/01/10 08:29:05;;;;;;;51.30;4.78;;;-0.50;99.90;;;;;;4961468;28;20034;-87
2022/01/10 08:31:33;;;;;;;38.38;4.70;;;-0.50;99.90;;;;;;4993334;28;20070;-87
2022/01/10 08:34:03;;;;;;;48.58;5.18;;;-0.50;99.90;;;;;;4990822;28;20038;-87
2022/01/10 08:36:29;;;;;;;22.13;4.72;;;-0.50;99.90;;;;;;4991579;28;20037;-87
2022/01/10 08:38:56;;;;;;;23.48;3.92;;;-0.40;99.90;;;;;;5006761;28;20038;-87
2022/01/10 08:41:22;;;;;;;29.05;4.00;;;-0.30;99.90;;;;;;5001987;28;20031;-87
2022/01/10 08:43:48;;;;;;;26.27;4.38;;;-0.30;99.90;;;;;;4984216;28;20033;-87
2022/01/10 08:46:29;;;;;;;49.85;4.85;;;-0.30;99.90;;;;;;4992976;28;20463;-87
2022/01/10 08:48:55;;;;;;;29.20;4.30;;;-0.30;99.90;;;;;;4975998;28;20034;-87
2022/01/10 08:51:20;;;;;;;18.05;4.38;;;-0.30;99.90;;;;;;4975369;28;20085;-87
2022/01/10 08:53:46;;;;;;;30.13;5.25;;;-0.30;99.90;;;;;;4991589;28;20035;-87
2022/01/10 08:56:12;;;;;;;17.42;4.57;;;-0.30;99.90;;;;;;4989658;28;20445;-86
2022/01/10 08:58:38;;;;;;;14.27;5.45;;;-0.30;99.90;;;;;;5011317;28;20034;-87
2022/01/10 09:01:06;;;;;;;16.08;5.10;;;-0.20;99.90;;;;;;4994055;28;20040;-87
2022/01/10 09:03:40;;;;;;;17.90;5.40;;;-0.10;99.90;;;;;;4995018;28;20026;-87
2022/01/10 09:06:06;;;;;;;65.90;5.35;;;0.00;99.90;;;;;;4996478;28;20038;-87
2022/01/10 09:08:36;;;;;;;15.68;4.90;;;-0.10;99.90;;;;;;4978961;28;20050;-87
2022/01/10 09:11:03;;;;;;;12.67;4.30;;;-0.10;99.90;;;;;;4996694;28;20108;-86
2022/01/10 09:13:33;;;;;;;13.25;4.78;;;-0.10;99.90;;;;;;5009388;28;20095;-86
2022/01/10 09:16:02;;;;;;;24.95;3.83;;;0.00;99.90;;;;;;5010255;28;20030;-86
2022/01/10 09:18:28;;;;;;;11.38;4.75;;;0.00;99.90;;;;;;5010894;28;20042;-87
2022/01/10 09:20:55;;;;;;;15.20;3.85;;;0.00;99.90;;;;;;5008999;28;20037;-87
2022/01/10 09:23:21;;;;;;;41.65;4.97;;;-0.10;99.90;;;;;;4994678;28;20021;-87
2022/01/10 09:25:49;;;;;;;51.28;5.30;;;-0.10;99.90;;;;;;4980958;28;20030;-87
2022/01/10 09:28:16;;;;;;;44.97;5.07;;;-0.10;99.90;;;;;;4991987;28;20030;-87
2022/01/10 09:30:41;;;;;;;41.70;4.03;;;-0.20;99.90;;;;;;4991058;28;20057;-86
2022/01/10 09:33:17;;;;;;;82.15;4.55;;;-0.30;99.90;;;;;;4983452;28;20072;-87
2022/01/10 09:35:43;;;;;;;37.10;4.25;;;-0.30;99.90;;;;;;5011519;28;20025;-87
2022/01/10 09:38:09;;;;;;;18.45;4.25;;;-0.30;99.90;;;;;;4991039;28;20090;-87
2022/01/10 09:40:35;;;;;;;41.40;4.28;;;-0.20;99.90;;;;;;4990617;28;20038;-87
2022/01/10 09:43:04;;;;;;;12.63;4.35;;;-0.20;99.90;;;;;;4990977;28;20037;-87
2022/01/10 09:45:30;;;;;;;14.75;4.60;;;-0.10;99.90;;;;;;4974026;28;20117;-87
2022/01/10 09:47:56;;;;;;;63.28;4.82;;;-0.10;99.90;;;;;;4990397;28;20062;-87
2022/01/10 09:50:22;;;;;;;97.10;6.05;;;-0.10;99.90;;;;;;4958833;28;20476;-87
2022/01/10 09:52:52;;;;;;;75.97;4.47;;;-0.10;99.90;;;;;;4974629;28;20115;-87
2022/01/10 09:55:18;;;;;;;32.15;4.68;;;-0.10;99.90;;;;;;4990055;28;20027;-86
2022/01/10 09:57:43;;;;;;;60.78;3.80;;;0.00;99.90;;;;;;4976245;28;20427;-87
2022/01/10 10:00:11;;;;;;;23.40;3.90;;;0.10;99.90;;;;;;4988521;28;20035;-87
2022/01/10 10:02:37;;;;;;;32.92;4.30;;;0.10;99.90;;;;;;4986186;28;20487;-87
2022/01/10 10:05:06;;;;;;;26.50;4.10;;;0.20;99.90;;;;;;4982305;28;20119;-87
2022/01/10 10:07:36;;;;;;;65.50;4.72;;;0.30;99.90;;;;;;5008370;28;20034;-87
2022/01/10 10:10:12;;;;;;;66.37;5.33;;;0.40;99.90;;;;;;5009496;28;20030;-87
2022/01/10 10:13:04;;;;;;;42.40;5.20;;;0.40;99.90;;;;;;5008283;28;20048;-87
2022/01/10 10:15:32;;;;;;;64.80;5.43;;;0.40;99.90;;;;;;4987716;28;20490;-87
2022/01/10 10:18:08;;;;;;;18.10;4.60;;;0.60;99.90;;;;;;4989703;28;20022;-87
2022/01/10 10:20:39;;;;;;;11.00;5.63;;;0.70;99.90;;;;;;4961102;28;20410;-87
2022/01/10 10:23:23;;;;;;;8.75;4.15;;;0.80;99.90;;;;;;4991236;28;20330;-87
2022/01/10 10:25:52;;;;;;;15.65;4.25;;;0.90;99.90;;;;;;5009203;28;20022;-86
2022/01/10 10:28:18;;;;;;;37.60;4.53;;;1.00;99.90;;;;;;4993540;28;20057;-87
2022/01/10 10:30:44;;;;;;;40.80;5.68;;;1.10;99.90;;;;;;5010629;28;20037;-87
2022/01/10 10:33:23;;;;;;;19.40;5.03;;;1.20;99.90;;;;;;4990500;28;20037;-87
2022/01/10 10:36:10;;;;;;;48.80;4.65;;;1.20;99.90;;;;;;4986060;28;20410;-87
2022/01/10 10:38:36;;;;;;;102.43;6.88;;;1.10;99.90;;;;;;4993060;28;20060;-87
2022/01/10 10:41:04;;;;;;;116.53;6.15;;;1.00;99.90;;;;;;4989640;28;20286;-87
2022/01/10 10:43:31;;;;;;;79.82;4.70;;;0.90;99.90;;;;;;4973442;28;20030;-87
2022/01/10 10:46:03;;;;;;;112.22;5.50;;;0.80;99.90;;;;;;4989978;28;20039;-86
2022/01/10 10:48:37;;;;;;;50.05;4.18;;;0.70;99.90;;;;;;4989495;28;20030;-87
2022/01/10 10:51:07;;;;;;;128.38;5.45;;;0.80;99.90;;;;;;4974379;28;20058;-87
2022/01/10 10:53:33;;;;;;;42.17;4.72;;;0.80;99.90;;;;;;5009153;28;20053;-87
2022/01/10 10:56:01;;;;;;;121.20;5.30;;;0.90;99.90;;;;;;4990633;28;20069;-87
2022/01/10 10:58:27;;;;;;;16.95;4.03;;;1.00;99.90;;;;;;4992392;28;20041;-87
2022/01/10 11:00:57;;;;;;;305.77;12.18;;;1.10;99.90;;;;;;5008868;28;20033;-87
2022/01/10 11:03:24;;;;;;;31.08;4.70;;;1.10;99.90;;;;;;4992570;28;20447;-87
2022/01/10 11:05:57;;;;;;;72.38;4.32;;;1.10;99.90;;;;;;5006755;28;20033;-87
2022/01/10 11:08:25;;;;;;;117.53;5.93;;;1.20;99.90;;;;;;5008881;28;20026;-87
2022/01/10 11:10:51;;;;;;;6.18;3.78;;;1.20;99.90;;;;;;5009196;28;20405;-87
2022/01/10 11:13:20;;;;;;;26.38;4.20;;;1.30;99.90;;;;;;4992373;28;20493;-87
2022/01/10 11:15:45;;;;;;;20.73;4.10;;;1.40;99.90;;;;;;4990747;28;20454;-87
2022/01/10 11:18:11;;;;;;;47.30;4.65;;;1.50;99.90;;;;;;5008530;28;20069;-87
2022/01/10 11:20:59;;;;;;;33.95;5.40;;;1.50;99.90;;;;;;4995518;28;20095;-87
2022/01/10 11:23:27;;;;;;;11.60;4.38;;;1.60;99.90;;;;;;5008668;28;20125;-87
2022/01/10 11:25:52;;;;;;;14.82;4.22;;;1.60;99.90;;;;;;5006791;28;20479;-87
2022/01/10 11:28:24;;;;;;;17.00;4.15;;;1.70;99.90;;;;;;4977602;28;20045;-87
2022/01/10 11:30:52;;;;;;;20.00;5.38;;;1.80;99.90;;;;;;4988968;28;20026;-87
2022/01/10 11:33:19;;;;;;;29.88;8.20;;;1.90;99.90;;;;;;4972871;28;20034;-87
2022/01/10 11:35:50;;;;;;;13.95;5.93;;;2.00;99.90;;;;;;4990050;28;20042;-87
2022/01/10 11:38:44;;;;;;;27.08;5.30;;;2.00;99.90;;;;;;4972677;28;20069;-87
2022/01/10 11:41:14;;;;;;;16.00;4.75;;;2.10;99.90;;;;;;4988922;28;20129;-87
2022/01/10 11:43:44;;;;;;;15.20;5.53;;;2.10;99.90;;;;;;4989071;28;20062;-87
2022/01/10 11:46:11;;;;;;;;;;;2.20;99.90;;;;;;4989911;28;20169;-87
2022/01/10 11:48:50;;;;;;;14.07;4.43;;;2.20;99.90;;;;;;4990379;28;19954;-87
2022/01/10 11:51:31;;;;;;;46.03;4.88;;;2.20;99.90;;;;;;4989065;28;20026;-87
2022/01/10 11:54:13;;;;;;;32.60;5.47;;;2.10;99.90;;;;;;4972971;28;20653;-87
2022/01/10 11:56:45;;;;;;;28.70;5.18;;;2.10;99.90;;;;;;4987881;28;20038;-87
2022/01/10 11:59:20;;;;;;;83.30;6.78;;;2.00;99.90;;;;;;4976048;28;20411;-87
2022/01/10 12:01:57;;;;;;;17.67;4.95;;;2.00;99.90;;;;;;4973435;28;20035;-87
2022/01/10 12:04:24;;;;;;;19.58;5.03;;;1.90;99.90;;;;;;4988618;28;20585;-87
2022/01/10 12:06:51;;;;;;;88.32;5.75;;;1.90;99.90;;;;;;4972581;28;20039;-87
2022/01/10 12:09:27;;;;;;;10.77;5.30;;;1.90;99.90;;;;;;4991071;28;20046;-87
2022/01/10 12:12:01;;;;;;;52.28;4.75;;;2.00;99.90;;;;;;4988787;28;20250;-87
2022/01/10 12:14:27;;;;;;;25.75;5.00;;;2.00;99.90;;;;;;4999710;28;20021;-87
2022/01/10 12:16:55;;;;;;;16.70;5.07;;;2.10;99.90;;;;;;4972824;28;20129;-87
2022/01/10 12:19:24;;;;;;;17.63;7.22;;;2.10;99.90;;;;;;4976772;28;20034;-87
2022/01/10 12:21:50;;;;;;;16.55;5.05;;;2.10;99.90;;;;;;4999228;28;20384;-87
2022/01/10 12:24:16;;;;;;;12.30;5.32;;;2.10;99.90;;;;;;4998940;28;20029;-87
2022/01/10 12:26:43;;;;;;;21.45;6.38;;;2.20;99.90;;;;;;4986268;28;20027;-87
2022/01/10 12:29:10;;;;;;;15.73;6.22;;;2.30;99.90;;;;;;4998090;28;20018;-87
2022/01/10 12:31:37;;;;;;;11.10;5.18;;;2.30;99.90;;;;;;4996890;28;20080;-87
2022/01/10 12:34:04;;;;;;;13.70;5.18;;;2.30;99.90;;;;;;4988596;28;20300;-86
2022/01/10 12:36:32;;;;;;;10.73;5.20;;;2.30;99.90;;;;;;5000559;28;20038;-87
2022/01/10 12:39:21;;;;;;;19.10;5.30;;;2.20;99.90;;;;;;4998162;28;20117;-87
2022/01/10 12:41:49;;;;;;;15.50;4.82;;;2.20;99.90;;;;;;4993010;28;20045;-87
2022/01/10 12:44:14;;;;;;;26.10;6.80;;;2.20;99.90;;;;;;4975670;28;20022;-87
2022/01/10 12:46:41;;;;;;;13.18;5.47;;;2.10;99.90;;;;;;4991033;28;20093;-87
2022/01/10 12:49:11;;;;;;;18.58;5.30;;;2.10;99.90;;;;;;4990137;28;20383;-87
2022/01/10 12:51:58;;;;;;;13.35;5.65;;;2.20;99.90;;;;;;4994930;28;20453;-87
2022/01/10 12:54:33;;;;;;;12.98;5.82;;;2.20;99.90;;;;;;5010730;28;20038;-87
2022/01/10 12:57:03;;;;;;;14.90;5.88;;;2.40;99.90;;;;;;4994420;28;20384;-87
2022/01/10 12:59:31;;;;;;;14.55;6.30;;;2.40;99.90;;;;;;4992811;28;20026;-87
2022/01/10 13:01:59;;;;;;;59.45;7.63;;;2.50;99.90;;;;;;5008877;28;20037;-87
2022/01/10 13:04:36;;;;;;;15.50;6.93;;;2.60;99.90;;;;;;4994778;28;20040;-87